Time;durP1;ratioP1;P1;durP2;ratioP2;P2;SDS_P1;SDS_P2;PMS_P1;PMS_P2;Temp;Humidity;BMP_temperature;BMP_pressure;BME280_temperature;BME280_humidity;BME280_pressure;Samples;Min_cycle;Max_cycle;Signal;HPM_P1;HPM_P2
2022/11/29 00:00:15;;;;;;;1999.90;999.90;;;8.00;99.90;;;;;;6706753;88;20261;-73
2022/11/29 00:10:16;;;;;;;1999.90;999.90;;;8.00;99.90;;;;;;6708942;88;20181;-74
2022/11/29 00:20:17;;;;;;;1999.90;999.90;;;7.80;99.90;;;;;;6705498;88;20178;-74
2022/11/29 00:30:18;;;;;;;1999.90;999.90;;;7.80;99.90;;;;;;6702860;88;20197;-74
2022/11/29 00:40:19;;;;;;;1999.90;999.90;;;8.00;99.90;;;;;;6704349;88;20368;-75
2022/11/29 00:50:19;;;;;;;1999.90;999.90;;;8.00;99.90;;;;;;6705032;88;20229;-75
2022/11/29 01:00:20;;;;;;;1999.90;999.90;;;8.00;99.90;;;;;;6709006;88;20378;-74
2022/11/29 01:10:21;;;;;;;1999.90;999.90;;;8.00;99.90;;;;;;6707441;88;20240;-74
2022/11/29 01:20:21;;;;;;;1999.90;999.90;;;8.00;99.90;;;;;;6703377;88;20207;-74
2022/11/29 01:30:22;;;;;;;1999.90;999.90;;;7.90;99.90;;;;;;6709828;77;20222;-76
2022/11/29 01:40:23;;;;;;;1999.90;999.90;;;7.90;99.90;;;;;;6706030;88;20195;-77
2022/11/29 01:50:23;;;;;;;1999.90;999.90;;;8.00;99.90;;;;;;6699487;88;20204;-77
2022/11/29 02:00:24;;;;;;;1999.90;999.90;;;7.90;99.90;;;;;;6701157;88;20198;-78
2022/11/29 02:10:39;;;;;;;1999.90;999.90;;;7.80;99.90;;;;;;6704982;88;20279;-77
2022/11/29 02:21:14;;;;;;;1999.90;999.90;;;7.90;99.90;;;;;;6706484;88;20515;-77
2022/11/29 02:32:00;;;;;;;1999.90;999.90;;;8.00;99.90;;;;;;6703443;88;20310;-78
2022/11/29 02:42:03;;;;;;;1999.90;999.90;;;8.00;99.90;;;;;;6700303;88;20232;-77
2022/11/29 02:52:10;;;;;;;1999.90;999.90;;;8.00;99.90;;;;;;6699737;88;20288;-76
2022/11/29 03:02:21;;;;;;;1999.90;999.90;;;7.90;99.90;;;;;;6699670;88;20329;-78
2022/11/29 03:12:44;;;;;;;1999.90;999.90;;;8.00;99.90;;;;;;6705859;88;20206;-78
2022/11/29 03:23:12;;;;;;;1999.90;999.90;;;8.00;99.90;;;;;;6701801;88;20187;-78
2022/11/29 03:33:30;;;;;;;1999.90;999.90;;;8.00;99.90;;;;;;6700703;88;20385;-77
2022/11/29 03:43:42;;;;;;;1999.90;999.90;;;8.00;99.90;;;;;;6698567;88;20282;-77
2022/11/29 03:54:06;;;;;;;1999.90;999.90;;;8.00;99.90;;;;;;6698594;88;20626;-77
2022/11/29 04:04:25;;;;;;;1999.90;999.90;;;8.20;99.90;;;;;;6700024;88;20215;-78
2022/11/29 04:14:41;;;;;;;1999.90;999.90;;;8.20;99.90;;;;;;6696572;88;20300;-77
2022/11/29 04:25:21;;;;;;;1999.90;999.90;;;8.20;99.90;;;;;;6697704;88;20243;-77
2022/11/29 04:35:21;;;;;;;1999.90;999.90;;;8.20;99.90;;;;;;6700487;88;20226;-77
2022/11/29 04:45:52;;;;;;;1999.90;999.90;;;8.30;99.90;;;;;;6704984;88;20674;-77
2022/11/29 04:56:08;;;;;;;1999.90;999.90;;;8.30;99.90;;;;;;6707764;88;20202;-77
2022/11/29 05:06:27;;;;;;;1999.90;999.90;;;8.30;99.90;;;;;;6707195;88;20754;-77
2022/11/29 05:16:35;;;;;;;1999.90;999.90;;;8.40;99.90;;;;;;6708425;88;20217;-77
2022/11/29 05:26:50;;;;;;;1999.90;999.90;;;8.40;99.90;;;;;;6707867;88;20216;-77
2022/11/29 05:37:04;;;;;;;1999.90;999.90;;;8.40;99.90;;;;;;6701908;88;20174;-77
2022/11/29 05:47:10;;;;;;;1999.90;999.90;;;8.40;99.90;;;;;;6701726;88;20275;-77
2022/11/29 05:57:34;;;;;;;1999.90;999.90;;;8.40;99.90;;;;;;6705404;88;20246;-77
2022/11/29 06:07:57;;;;;;;1999.90;999.90;;;8.50;99.90;;;;;;6703562;88;20191;-77
2022/11/29 06:18:07;;;;;;;1999.90;999.90;;;8.40;99.90;;;;;;6703017;88;20199;-78
2022/11/29 06:28:51;;;;;;;1999.90;999.90;;;8.40;99.90;;;;;;6703246;88;20193;-78
2022/11/29 06:38:52;;;;;;;1999.90;999.90;;;8.40;99.90;;;;;;6695972;88;20312;-78
2022/11/29 06:49:19;;;;;;;1999.90;999.90;;;8.40;99.90;;;;;;6706104;88;20228;-78
2022/11/29 06:59:50;;;;;;;1999.90;999.90;;;8.30;99.90;;;;;;6702009;88;20207;-76
2022/11/29 07:09:57;;;;;;;1999.90;999.90;;;8.40;99.90;;;;;;6697645;88;20191;-79
2022/11/29 07:20:22;;;;;;;1999.90;999.90;;;8.40;99.90;;;;;;6703040;88;20212;-77
2022/11/29 07:30:49;;;;;;;1999.90;999.90;;;8.40;99.90;;;;;;6716101;77;20182;-78
2022/11/29 07:41:16;;;;;;;1999.90;999.90;;;8.40;99.90;;;;;;6705983;88;20253;-78
2022/11/29 07:51:16;;;;;;;1999.90;999.90;;;8.30;99.90;;;;;;6688521;88;20309;-80
2022/11/29 08:01:17;;;;;;;1999.90;999.90;;;8.30;99.90;;;;;;6700273;88;20360;-78
2022/11/29 08:11:17;;;;;;;1999.90;999.90;;;8.40;99.90;;;;;;6707865;88;20694;-78
2022/11/29 08:21:18;;;;;;;1999.90;999.90;;;8.50;99.90;;;;;;6711409;88;20189;-79
2022/11/29 08:31:39;;;;;;;1999.90;999.90;;;8.50;99.90;;;;;;6711879;88;20274;-78
2022/11/29 08:41:40;;;;;;;1999.90;999.90;;;8.50;99.90;;;;;;6699426;88;20246;-78
2022/11/29 08:51:40;;;;;;;1999.90;999.90;;;8.60;99.90;;;;;;6675014;89;20210;-79
2022/11/29 09:01:41;;;;;;;1999.90;999.90;;;8.60;99.90;;;;;;6722302;88;20513;-79
2022/11/29 09:11:42;;;;;;;1999.90;999.90;;;8.60;99.90;;;;;;6725368;88;20739;-79
2022/11/29 09:21:42;;;;;;;1999.90;999.90;;;8.60;99.90;;;;;;6722412;88;20206;-79
2022/11/29 09:31:46;;;;;;;1999.90;999.90;;;8.70;99.90;;;;;;6719678;88;20656;-79
2022/11/29 09:42:09;;;;;;;1999.90;999.90;;;8.80;99.90;;;;;;6723893;88;20337;-79
2022/11/29 09:52:31;;;;;;;1999.90;999.90;;;8.80;99.90;;;;;;6705847;88;20626;-80
2022/11/29 10:02:46;;;;;;;1999.90;999.90;;;8.70;99.90;;;;;;6706291;88;20194;-80
2022/11/29 10:12:55;;;;;;;1999.90;999.90;;;8.70;99.90;;;;;;6705700;88;20232;-79
2022/11/29 10:22:57;;;;;;;1999.90;999.90;;;8.70;99.90;;;;;;6703595;88;20191;-80
2022/11/29 10:32:59;;;;;;;1999.90;999.90;;;8.90;99.90;;;;;;6703487;88;20221;-79
2022/11/29 10:43:01;;;;;;;1999.90;999.90;;;8.80;99.90;;;;;;6699989;88;20237;-80
2022/11/29 10:53:09;;;;;;;1999.90;999.90;;;8.90;99.90;;;;;;6703811;88;20186;-83
2022/11/29 11:03:31;;;;;;;1999.90;999.90;;;8.90;99.90;;;;;;6700752;88;20198;-79
2022/11/29 11:13:34;;;;;;;1999.90;999.90;;;8.90;99.90;;;;;;6702976;88;20195;-80
2022/11/29 11:23:38;;;;;;;1999.90;999.90;;;9.00;99.90;;;;;;6697803;88;20715;-80
2022/11/29 11:33:39;;;;;;;1999.90;999.90;;;9.00;99.90;;;;;;6698506;88;20262;-78
2022/11/29 11:43:40;;;;;;;1999.90;999.90;;;9.00;99.90;;;;;;6700628;88;20231;-79
2022/11/29 11:53:43;;;;;;;1999.90;999.90;;;9.00;99.90;;;;;;6700438;88;20649;-78
2022/11/29 12:03:49;;;;;;;1999.90;999.90;;;9.10;99.90;;;;;;6699735;88;20214;-80
2022/11/29 12:13:55;;;;;;;1999.90;999.90;;;9.10;99.90;;;;;;6695173;89;20666;-79
2022/11/29 12:24:15;;;;;;;1999.90;999.90;;;9.10;99.90;;;;;;6699081;88;20197;-79
2022/11/29 12:34:53;;;;;;;1999.90;999.90;;;9.20;99.90;;;;;;6699247;88;20626;-80
2022/11/29 12:45:30;;;;;;;1999.90;999.90;;;9.40;99.90;;;;;;6704773;88;20203;-79
2022/11/29 12:56:09;;;;;;;1999.90;999.90;;;9.50;99.90;;;;;;6699663;88;20197;-79
2022/11/29 13:06:27;;;;;;;1999.90;999.90;;;9.60;99.90;;;;;;6697514;88;20190;-78
2022/11/29 13:16:38;;;;;;;1999.90;999.90;;;9.70;99.90;;;;;;6690142;88;20240;-80
2022/11/29 13:26:40;;;;;;;1999.90;999.90;;;9.60;99.90;;;;;;6708448;77;20647;-75
2022/11/29 13:37:03;;;;;;;1999.90;999.90;;;9.50;99.90;;;;;;6681697;88;20239;-76
2022/11/29 13:47:08;;;;;;;1999.90;999.90;;;9.30;99.90;;;;;;6661012;89;20286;-73
2022/11/29 13:57:09;;;;;;;1999.90;999.90;;;9.40;99.90;;;;;;6664490;89;20217;-73
2022/11/29 14:07:18;;;;;;;1999.90;999.90;;;9.40;99.90;;;;;;6659980;89;20195;-73
2022/11/29 14:17:49;;;;;;;1999.90;999.90;;;9.40;99.90;;;;;;6661499;88;20198;-75
2022/11/29 14:27:55;;;;;;;1999.90;999.90;;;9.30;99.90;;;;;;6662015;89;20223;-74
2022/11/29 14:38:14;;;;;;;1999.90;999.90;;;9.20;99.90;;;;;;6659104;89;20296;-74
2022/11/29 14:48:30;;;;;;;1999.90;999.90;;;9.30;99.90;;;;;;6659903;89;20183;-74
2022/11/29 14:58:30;;;;;;;1999.90;999.90;;;9.20;99.90;;;;;;6666287;89;20637;-74
2022/11/29 15:08:39;;;;;;;1999.90;999.90;;;9.20;99.90;;;;;;6667416;89;20231;-75
2022/11/29 15:19:14;;;;;;;1999.90;999.90;;;9.20;99.90;;;;;;6662355;88;20309;-74
2022/11/29 15:29:17;;;;;;;1999.90;999.90;;;9.00;99.90;;;;;;6663639;88;20649;-76
2022/11/29 15:39:27;;;;;;;1999.90;999.90;;;9.00;99.90;;;;;;6660211;89;20683;-75
2022/11/29 15:49:29;;;;;;;1999.90;999.90;;;8.80;99.90;;;;;;6665002;89;20325;-75
2022/11/29 15:59:41;;;;;;;1999.90;999.90;;;8.70;99.90;;;;;;6659983;89;20172;-76
2022/11/29 16:09:45;;;;;;;1999.90;999.90;;;8.70;99.90;;;;;;6662919;89;20338;-74
2022/11/29 16:19:46;;;;;;;1999.90;999.90;;;8.80;99.90;;;;;;6655540;89;20203;-74
2022/11/29 16:29:48;;;;;;;1999.90;999.90;;;8.60;99.90;;;;;;6667574;88;20282;-74
2022/11/29 16:39:53;;;;;;;1999.90;999.90;;;8.60;99.90;;;;;;6667122;88;20261;-74
2022/11/29 16:50:01;;;;;;;1999.90;999.90;;;8.60;99.90;;;;;;6661333;88;20184;-75
2022/11/29 17:00:27;;;;;;;1999.90;999.90;;;8.60;99.90;;;;;;6664933;88;20232;-75
2022/11/29 17:10:28;;;;;;;;;;;8.60;99.90;;;;;;6662385;88;20250;-77
2022/11/29 17:20:29;;;;;;;1999.90;999.90;;;8.40;99.90;;;;;;6660276;88;20052;-77
2022/11/29 17:30:30;;;;;;;1999.90;999.90;;;8.40;99.90;;;;;;6667132;88;20303;-77
2022/11/29 17:40:31;;;;;;;1999.90;999.90;;;8.30;99.90;;;;;;6667452;88;20220;-75
2022/11/29 17:50:31;;;;;;;1999.90;999.90;;;8.30;99.90;;;;;;6673302;88;20247;-75
2022/11/29 18:00:32;;;;;;;1999.90;999.90;;;8.40;99.90;;;;;;6667373;88;20301;-75
2022/11/29 18:10:33;;;;;;;1999.90;999.90;;;8.30;99.90;;;;;;6664125;89;20188;-74
2022/11/29 18:20:33;;;;;;;1999.90;999.90;;;8.40;99.90;;;;;;6678293;88;20226;-75
2022/11/29 18:30:34;;;;;;;1999.90;999.90;;;8.40;99.90;;;;;;6668453;88;20798;-75
2022/11/29 18:40:39;;;;;;;1999.90;999.90;;;8.40;99.90;;;;;;6669031;88;20292;-76
2022/11/29 18:50:40;;;;;;;1999.90;999.90;;;8.50;99.90;;;;;;6662897;89;20207;-76
2022/11/29 19:00:40;;;;;;;1999.90;999.90;;;8.40;99.90;;;;;;6662292;88;20200;-76
2022/11/29 19:10:41;;;;;;;1999.90;999.90;;;8.40;99.90;;;;;;6661430;88;21076;-76
2022/11/29 19:20:41;;;;;;;1999.90;999.90;;;8.40;99.90;;;;;;6657388;89;20265;-74
2022/11/29 19:41:46;;;;;;;1999.90;999.90;;;8.30;99.90;;;;;;6729978;88;20183;-78
2022/11/29 19:51:46;;;;;;;1999.90;999.90;;;8.20;99.90;;;;;;6720367;88;20189;-78
2022/11/29 20:01:47;;;;;;;1999.90;999.90;;;8.10;99.90;;;;;;6739325;88;20166;-84
2022/11/29 20:11:47;;;;;;;1999.90;999.90;;;8.20;99.90;;;;;;6743281;88;21035;-77
2022/11/29 20:21:48;;;;;;;1999.90;999.90;;;8.00;99.90;;;;;;6735873;88;20210;-80
2022/11/29 20:31:49;;;;;;;1999.90;999.90;;;8.00;99.90;;;;;;6751630;87;20273;-80
2022/11/29 20:41:58;;;;;;;1999.90;999.90;;;8.10;99.90;;;;;;6713158;88;20369;-78
2022/11/29 20:52:04;;;;;;;1999.90;999.90;;;8.10;99.90;;;;;;6701949;88;20235;-77
2022/11/29 21:02:04;;;;;;;;;;;8.00;99.90;;;;;;6699957;88;20222;-77
2022/11/29 21:12:05;;;;;;;1999.90;999.90;;;7.90;99.90;;;;;;6713407;88;20075;-77
2022/11/29 21:22:19;;;;;;;1999.90;999.90;;;7.80;99.90;;;;;;6717232;88;20250;-78
2022/11/29 21:32:22;;;;;;;1999.90;999.90;;;7.80;99.90;;;;;;6707130;88;20195;-78
2022/11/29 21:42:23;;;;;;;1999.90;999.90;;;7.70;99.90;;;;;;6705810;88;20213;-78
2022/11/29 21:52:24;;;;;;;1999.90;999.90;;;7.70;99.90;;;;;;6706745;88;20174;-79
2022/11/29 22:02:24;;;;;;;1999.90;999.90;;;7.60;99.90;;;;;;6708588;88;20309;-79
2022/11/29 22:12:25;;;;;;;1999.90;999.90;;;7.60;99.90;;;;;;6715404;88;20220;-79
2022/11/29 22:22:25;;;;;;;1999.90;999.90;;;7.50;99.90;;;;;;6723649;88;20354;-81
2022/11/29 22:32:26;;;;;;;1999.90;999.90;;;7.50;99.90;;;;;;6739101;88;20227;-79
2022/11/29 22:42:26;;;;;;;1999.90;999.90;;;7.40;99.90;;;;;;6734254;88;20212;-80
2022/11/29 22:52:27;;;;;;;1999.90;999.90;;;7.40;99.90;;;;;;6740656;88;20221;-83
2022/11/29 23:02:27;;;;;;;1999.90;999.90;;;7.50;99.90;;;;;;6738819;88;20184;-79
2022/11/29 23:12:28;;;;;;;1999.90;999.90;;;7.60;99.90;;;;;;6736352;88;20230;-78
2022/11/29 23:22:30;;;;;;;1999.90;999.90;;;7.60;99.90;;;;;;6736745;88;20192;-79
2022/11/29 23:32:31;;;;;;;1999.90;999.90;;;7.60;99.90;;;;;;6732708;88;20331;-79
2022/11/29 23:42:31;;;;;;;1999.90;999.90;;;7.40;99.90;;;;;;6733675;88;20593;-79
2022/11/29 23:52:32;;;;;;;1999.90;999.90;;;7.50;99.90;;;;;;6734942;88;20318;-80
